Time;durP1;ratioP1;P1;durP2;ratioP2;P2;SDS_P1;SDS_P2;PMS_P1;PMS_P2;Temp;Humidity;BMP_temperature;BMP_pressure;BME280_temperature;BME280_humidity;BME280_pressure;Samples;Min_cycle;Max_cycle;Signal;HPM_P1;HPM_P2
2022/05/03 00:00:17;;;;;;;8.35;5.15;;;;;;;;;;6188825;23;20016;-85
2022/05/03 00:02:52;;;;;;;8.98;4.88;;;;;;;;;;6164144;23;20024;-85
2022/05/03 00:05:31;;;;;;;8.20;5.13;;;;;;;;;;6188728;23;20008;-85
2022/05/03 00:08:06;;;;;;;7.60;4.97;;;;;;;;;;6188938;23;20517;-85
2022/05/03 00:10:50;;;;;;;8.57;4.82;;;;;;;;;;6188636;23;20089;-85
2022/05/03 00:13:19;;;;;;;7.32;4.60;;;;;;;;;;6188894;23;20095;-85
2022/05/03 00:15:45;;;;;;;7.55;5.03;;;;;;;;;;6188404;23;20087;-85
2022/05/03 00:18:12;;;;;;;7.57;4.55;;;;;;;;;;6215380;23;20012;-85
2022/05/03 00:20:38;;;;;;;8.77;5.18;;;;;;;;;;6188635;23;20016;-84
2022/05/03 00:23:05;;;;;;;10.57;5.80;;;;;;;;;;6188635;23;20012;-84
2022/05/03 00:25:31;;;;;;;9.00;4.95;;;;;;;;;;6188471;23;20342;-85
2022/05/03 00:27:57;;;;;;;7.97;4.80;;;;;;;;;;6194892;23;20447;-84
2022/05/03 00:30:23;;;;;;;7.57;4.70;;;;;;;;;;6185115;23;20021;-84
2022/05/03 00:32:49;;;;;;;8.50;5.22;;;;;;;;;;6158734;23;20173;-85
2022/05/03 00:35:18;;;;;;;10.10;5.40;;;;;;;;;;6158641;23;20013;-86
2022/05/03 00:37:44;;;;;;;8.05;5.28;;;;;;;;;;6158670;23;20013;-84
2022/05/03 00:40:11;;;;;;;9.68;5.38;;;;;;;;;;6134250;23;20063;-85
2022/05/03 00:42:48;;;;;;;10.50;6.28;;;;;;;;;;6158573;23;20514;-85
2022/05/03 00:45:19;;;;;;;10.60;5.43;;;;;;;;;;6158817;23;20017;-84
2022/05/03 00:47:53;;;;;;;10.10;6.10;;;;;;;;;;6133877;23;20071;-85
2022/05/03 00:50:38;;;;;;;11.07;6.57;;;;;;;;;;6158750;23;20020;-85
2022/05/03 00:53:10;;;;;;;12.75;7.25;;;;;;;;;;6158585;23;20084;-85
2022/05/03 00:55:55;;;;;;;11.60;6.57;;;;;;;;;;6158548;23;20020;-85
2022/05/03 00:58:33;;;;;;;10.70;6.90;;;;;;;;;;6134041;23;20016;-85
2022/05/03 01:01:06;;;;;;;13.18;7.18;;;;;;;;;;6158329;23;20017;-85
2022/05/03 01:03:38;;;;;;;11.25;6.70;;;;;;;;;;6158599;23;20080;-84
2022/05/03 01:06:07;;;;;;;10.05;6.03;;;;;;;;;;6158323;23;20013;-85
2022/05/03 01:08:39;;;;;;;10.95;6.72;;;;;;;;;;6158401;23;20476;-85
2022/05/03 01:11:32;;;;;;;9.90;6.38;;;;;;;;;;6158453;23;20017;-85
2022/05/03 01:14:10;;;;;;;9.65;6.78;;;;;;;;;;6114793;23;20035;-85
2022/05/03 01:16:40;;;;;;;9.63;6.78;;;;;;;;;;6158263;23;20096;-85
2022/05/03 01:19:21;;;;;;;9.10;5.63;;;;;;;;;;6158847;23;20013;-85
2022/05/03 01:22:06;;;;;;;9.85;5.97;;;;;;;;;;6158262;23;20013;-86
2022/05/03 01:24:46;;;;;;;11.52;6.70;;;;;;;;;;6158581;23;20036;-85
2022/05/03 01:27:24;;;;;;;13.50;7.25;;;;;;;;;;6168637;23;20024;-85
2022/05/03 01:29:51;;;;;;;10.82;7.28;;;;;;;;;;6163512;23;20031;-84
2022/05/03 01:32:19;;;;;;;11.32;7.03;;;;;;;;;;6188066;23;20051;-86
2022/05/03 01:34:46;;;;;;;10.05;6.78;;;;;;;;;;6188327;23;20016;-85
2022/05/03 01:37:31;;;;;;;10.40;7.60;;;;;;;;;;6187921;23;20043;-85
2022/05/03 01:40:17;;;;;;;13.73;8.43;;;;;;;;;;6163399;23;20023;-85
2022/05/03 01:42:55;;;;;;;10.65;6.95;;;;;;;;;;6188126;23;20453;-85
2022/05/03 01:45:31;;;;;;;11.05;7.47;;;;;;;;;;6163391;23;20092;-85
2022/05/03 01:48:17;;;;;;;11.32;7.50;;;;;;;;;;6163092;23;20017;-85
2022/05/03 01:50:46;;;;;;;12.43;8.60;;;;;;;;;;6188201;23;20024;-85
2022/05/03 01:53:24;;;;;;;13.93;8.73;;;;;;;;;;6187935;23;20014;-85
2022/05/03 01:56:10;;;;;;;12.77;8.63;;;;;;;;;;6188137;23;20442;-85
2022/05/03 01:58:44;;;;;;;11.57;7.05;;;;;;;;;;6188189;23;20019;-84
2022/05/03 02:01:29;;;;;;;12.73;8.25;;;;;;;;;;6163200;23;20017;-85
2022/05/03 02:03:59;;;;;;;13.15;8.32;;;;;;;;;;6188140;23;20407;-85
2022/05/03 02:06:33;;;;;;;13.98;8.45;;;;;;;;;;6187802;23;20088;-86
2022/05/03 02:09:04;;;;;;;13.63;8.48;;;;;;;;;;6188234;23;20350;-85
2022/05/03 02:11:34;;;;;;;13.90;9.45;;;;;;;;;;6162953;23;20079;-85
2022/05/03 02:17:14;;;;;;;12.27;7.68;;;;;;;;;;6216563;23;20433;-85
2022/05/03 02:19:58;;;;;;;11.32;8.27;;;;;;;;;;6190082;23;20067;-85
2022/05/03 02:22:30;;;;;;;11.52;8.35;;;;;;;;;;6189603;23;20047;-85
2022/05/03 02:25:00;;;;;;;12.23;8.38;;;;;;;;;;6189998;23;20017;-84
2022/05/03 02:27:26;;;;;;;13.52;9.32;;;;;;;;;;6189317;23;20323;-85
2022/05/03 02:29:53;;;;;;;12.15;8.57;;;;;;;;;;6189850;23;20017;-85
2022/05/03 02:32:25;;;;;;;11.75;7.85;;;;;;;;;;6164912;23;20020;-85
2022/05/03 02:34:59;;;;;;;14.95;9.00;;;;;;;;;;6189841;23;20454;-86
2022/05/03 02:37:31;;;;;;;13.57;8.98;;;;;;;;;;6189421;23;20074;-85
2022/05/03 02:40:01;;;;;;;13.38;8.50;;;;;;;;;;6216899;23;20070;-85
2022/05/03 02:42:27;;;;;;;11.85;8.63;;;;;;;;;;6189475;23;20016;-85
2022/05/03 02:44:57;;;;;;;11.27;7.65;;;;;;;;;;6189768;23;20060;-85
2022/05/03 02:47:36;;;;;;;11.10;7.90;;;;;;;;;;6164582;23;20043;-85
2022/05/03 02:50:07;;;;;;;10.95;7.70;;;;;;;;;;6164962;23;20043;-85
2022/05/03 02:52:45;;;;;;;11.73;8.48;;;;;;;;;;6164609;23;20012;-85
2022/05/03 02:55:17;;;;;;;12.05;8.00;;;;;;;;;;6189756;23;20008;-85
2022/05/03 02:57:53;;;;;;;11.00;7.97;;;;;;;;;;6189433;23;20378;-86
2022/05/03 03:03:04;;;;;;;12.23;8.32;;;;;;;;;;6189319;23;20016;-85
2022/05/03 03:05:30;;;;;;;10.02;6.88;;;;;;;;;;6216582;23;20016;-85
2022/05/03 03:07:58;;;;;;;7.65;5.28;;;;;;;;;;6189139;23;20017;-85
2022/05/03 03:10:47;;;;;;;8.20;5.13;;;;;;;;;;6164662;23;20349;-85
2022/05/03 03:13:16;;;;;;;7.82;5.40;;;;;;;;;;6170513;23;20147;-86
2022/05/03 03:15:42;;;;;;;9.35;5.68;;;;;;;;;;6189561;23;20469;-85
2022/05/03 03:18:16;;;;;;;10.20;7.15;;;;;;;;;;6189224;23;20013;-86
2022/05/03 03:20:45;;;;;;;10.20;7.90;;;;;;;;;;6190254;23;20021;-86
2022/05/03 03:23:15;;;;;;;10.80;7.47;;;;;;;;;;6163886;23;20063;-86
2022/05/03 03:25:45;;;;;;;11.52;8.82;;;;;;;;;;6189466;23;20073;-86
2022/05/03 03:28:12;;;;;;;12.95;9.40;;;;;;;;;;6188758;23;20453;-86
2022/05/03 03:30:40;;;;;;;12.10;8.35;;;;;;;;;;6164527;23;20028;-85
2022/05/03 03:33:07;;;;;;;13.45;9.27;;;;;;;;;;6189072;23;20393;-85
2022/05/03 03:35:34;;;;;;;13.13;9.05;;;;;;;;;;6164421;23;20017;-85
2022/05/03 03:38:01;;;;;;;12.73;9.20;;;;;;;;;;6163976;23;20063;-85
2022/05/03 03:40:27;;;;;;;13.82;9.40;;;;;;;;;;6164609;23;20052;-85
2022/05/03 03:42:54;;;;;;;12.85;9.07;;;;;;;;;;6188997;23;20020;-85
2022/05/03 03:45:21;;;;;;;12.70;9.00;;;;;;;;;;6189331;23;20104;-84
2022/05/03 03:47:48;;;;;;;14.52;8.95;;;;;;;;;;6188736;23;20087;-85
2022/05/03 03:50:14;;;;;;;12.90;9.25;;;;;;;;;;6189207;23;20013;-85
2022/05/03 03:52:44;;;;;;;13.82;9.30;;;;;;;;;;6188956;23;20013;-86
2022/05/03 03:55:11;;;;;;;12.82;9.30;;;;;;;;;;6189217;23;20013;-86
2022/05/03 03:57:38;;;;;;;12.85;9.13;;;;;;;;;;6215625;23;20009;-86
2022/05/03 04:00:08;;;;;;;14.20;9.90;;;;;;;;;;6189103;23;20017;-86
2022/05/03 04:02:35;;;;;;;14.63;9.82;;;;;;;;;;6188738;23;20150;-85
2022/05/03 04:05:01;;;;;;;13.90;9.70;;;;;;;;;;6189066;23;20126;-86
2022/05/03 04:07:27;;;;;;;14.82;9.95;;;;;;;;;;6188509;23;20088;-86
2022/05/03 04:09:53;;;;;;;12.73;9.65;;;;;;;;;;6189007;23;20083;-86
2022/05/03 04:12:23;;;;;;;11.40;9.07;;;;;;;;;;6215439;23;20362;-87
2022/05/03 04:14:49;;;;;;;13.13;9.68;;;;;;;;;;6188921;23;20008;-86
2022/05/03 04:17:15;;;;;;;13.13;10.18;;;;;;;;;;6164006;23;20019;-85
2022/05/03 04:19:42;;;;;;;13.77;10.18;;;;;;;;;;6188671;23;20452;-86
2022/05/03 04:22:23;;;;;;;13.80;10.23;;;;;;;;;;6164122;23;20346;-85
2022/05/03 04:24:49;;;;;;;13.88;10.27;;;;;;;;;;6188536;23;20450;-85
2022/05/03 04:27:15;;;;;;;15.02;10.25;;;;;;;;;;6188484;23;20032;-86
2022/05/03 04:29:41;;;;;;;17.55;10.88;;;;;;;;;;6163806;23;20078;-86
2022/05/03 04:32:08;;;;;;;15.15;11.13;;;;;;;;;;6188553;23;20008;-86
2022/05/03 04:34:35;;;;;;;15.90;10.25;;;;;;;;;;6188390;23;20331;-85
2022/05/03 04:37:01;;;;;;;16.75;13.25;;;;;;;;;;6188400;23;20009;-85
2022/05/03 04:39:28;;;;;;;16.83;12.43;;;;;;;;;;6164476;23;20036;-86
2022/05/03 04:41:54;;;;;;;18.20;12.20;;;;;;;;;;6188735;23;20021;-85
2022/05/03 04:44:20;;;;;;;17.70;12.93;;;;;;;;;;6188458;23;20346;-86
2022/05/03 04:46:46;;;;;;;17.65;12.90;;;;;;;;;;6188802;23;20027;-86
2022/05/03 04:49:12;;;;;;;16.55;12.20;;;;;;;;;;6188333;23;20087;-86
2022/05/03 04:51:38;;;;;;;18.83;12.18;;;;;;;;;;6188710;23;20009;-86
2022/05/03 04:54:04;;;;;;;17.98;12.15;;;;;;;;;;6163651;23;20444;-85
2022/05/03 04:56:30;;;;;;;17.17;12.60;;;;;;;;;;6188401;23;20012;-86
2022/05/03 04:58:56;;;;;;;24.08;13.18;;;;;;;;;;6188349;23;20012;-86
2022/05/03 05:01:22;;;;;;;19.70;14.20;;;;;;;;;;6163736;23;20092;-86
2022/05/03 05:03:49;;;;;;;19.15;12.90;;;;;;;;;;6188323;23;20008;-86
2022/05/03 05:06:15;;;;;;;17.85;13.15;;;;;;;;;;6188489;23;20019;-86
2022/05/03 05:08:41;;;;;;;19.40;13.48;;;;;;;;;;6163419;23;20013;-85
2022/05/03 05:11:08;;;;;;;17.27;13.57;;;;;;;;;;6163625;23;20020;-86
2022/05/03 05:13:34;;;;;;;21.90;14.57;;;;;;;;;;6163374;23;20039;-86
2022/05/03 05:16:00;;;;;;;22.20;16.00;;;;;;;;;;6188495;23;20016;-85
2022/05/03 05:18:30;;;;;;;25.33;16.30;;;;;;;;;;6188088;23;20009;-86
2022/05/03 05:20:56;;;;;;;24.83;18.65;;;;;;;;;;6188479;23;20415;-86
2022/05/03 05:23:22;;;;;;;28.45;18.30;;;;;;;;;;6188160;23;20442;-85
2022/05/03 05:25:49;;;;;;;27.85;19.30;;;;;;;;;;6163692;23;20389;-85
2022/05/03 05:28:15;;;;;;;30.27;21.30;;;;;;;;;;6188207;23;20095;-86
2022/05/03 05:30:42;;;;;;;28.23;20.02;;;;;;;;;;6188790;23;20039;-85
2022/05/03 05:33:08;;;;;;;31.20;22.55;;;;;;;;;;6188316;23;20019;-84
2022/05/03 05:35:34;;;;;;;29.60;21.48;;;;;;;;;;6188239;23;20012;-85
2022/05/03 05:38:00;;;;;;;32.75;22.60;;;;;;;;;;6163423;23;20012;-86
2022/05/03 05:40:26;;;;;;;31.17;22.08;;;;;;;;;;6188169;23;20020;-86
2022/05/03 05:42:52;;;;;;;29.83;21.30;;;;;;;;;;6188075;23;20013;-85
2022/05/03 05:45:18;;;;;;;30.13;22.30;;;;;;;;;;6188226;23;20088;-85
2022/05/03 05:47:44;;;;;;;29.50;23.10;;;;;;;;;;6189809;23;20306;-86
2022/05/03 05:50:13;;;;;;;31.58;21.92;;;;;;;;;;6165031;23;20043;-85
2022/05/03 05:55:24;;;;;;;31.55;21.92;;;;;;;;;;6190003;23;20016;-86
2022/05/03 05:57:50;;;;;;;33.45;23.67;;;;;;;;;;6190056;23;20090;-85
2022/05/03 06:00:18;;;;;;;30.85;22.63;;;;;;;;;;6189999;23;20095;-84
2022/05/03 06:02:44;;;;;;;30.85;21.98;;;;;;;;;;6190142;23;20019;-85
2022/05/03 06:05:10;;;;;;;32.40;23.27;;;;;;;;;;6189850;23;20044;-85
2022/05/03 06:07:36;;;;;;;35.10;22.05;;;;;;;;;;6190014;23;20328;-85
2022/05/03 06:10:02;;;;;;;34.55;24.40;;;;;;;;;;6164946;23;20044;-84
2022/05/03 06:12:28;;;;;;;33.58;23.73;;;;;;;;;;6165229;23;20506;-85
2022/05/03 06:14:54;;;;;;;36.20;24.90;;;;;;;;;;6189894;23;20222;-85
2022/05/03 06:17:20;;;;;;;36.88;24.63;;;;;;;;;;6216550;23;20307;-85
2022/05/03 06:19:46;;;;;;;34.95;24.65;;;;;;;;;;6189802;23;20020;-85
2022/05/03 06:22:12;;;;;;;34.28;25.88;;;;;;;;;;6189916;23;20389;-86
2022/05/03 06:24:38;;;;;;;35.22;25.02;;;;;;;;;;6189768;23;20024;-85
2022/05/03 06:27:04;;;;;;;34.67;25.45;;;;;;;;;;6189519;23;20016;-85
2022/05/03 06:29:33;;;;;;;37.20;26.50;;;;;;;;;;6189506;23;20021;-85
2022/05/03 06:31:59;;;;;;;39.50;25.20;;;;;;;;;;6189817;23;20008;-85
2022/05/03 06:34:26;;;;;;;39.85;25.92;;;;;;;;;;6189711;23;20013;-85
2022/05/03 06:36:52;;;;;;;39.72;24.67;;;;;;;;;;6189924;23;20017;-86
2022/05/03 06:39:18;;;;;;;35.83;25.65;;;;;;;;;;6189632;23;20017;-85
2022/05/03 06:41:44;;;;;;;35.58;25.15;;;;;;;;;;6165043;23;20023;-85
2022/05/03 06:44:10;;;;;;;37.10;25.80;;;;;;;;;;6189587;23;20020;-87
2022/05/03 06:46:36;;;;;;;37.97;26.02;;;;;;;;;;6188537;23;20021;-85
2022/05/03 06:49:02;;;;;;;42.20;26.08;;;;;;;;;;6162181;23;20031;-85
2022/05/03 06:51:28;;;;;;;39.00;26.38;;;;;;;;;;6187052;23;20473;-85
2022/05/03 06:53:54;;;;;;;39.35;26.88;;;;;;;;;;6187094;23;20016;-84
2022/05/03 06:56:20;;;;;;;37.30;24.88;;;;;;;;;;6186308;23;20021;-84
2022/05/03 06:58:46;;;;;;;42.40;24.88;;;;;;;;;;6186730;23;20067;-84
2022/05/03 07:01:13;;;;;;;39.20;22.50;;;;;;;;;;6161968;23;20492;-84
2022/05/03 07:03:40;;;;;;;38.15;22.15;;;;;;;;;;6187171;23;20017;-85
2022/05/03 07:06:06;;;;;;;35.97;19.02;;;;;;;;;;6164466;23;20088;-84
2022/05/03 07:08:32;;;;;;;35.53;17.17;;;;;;;;;;6164712;23;20059;-84
2022/05/03 07:10:58;;;;;;;34.83;15.70;;;;;;;;;;6164454;23;20383;-85
2022/05/03 07:13:25;;;;;;;26.85;11.90;;;;;;;;;;6189525;23;20110;-85
2022/05/03 07:15:54;;;;;;;23.83;9.40;;;;;;;;;;6189315;23;20016;-85
2022/05/03 07:23:51;;;;;;;18.60;5.68;;;;;;;;;;6189543;23;20024;-89
2022/05/03 07:26:17;;;;;;;16.88;5.68;;;;;;;;;;6163093;23;20023;-85
2022/05/03 07:28:43;;;;;;;13.52;6.05;;;;;;;;;;6189329;23;20342;-85
2022/05/03 07:31:09;;;;;;;11.38;5.47;;;;;;;;;;6190669;23;20014;-85
2022/05/03 07:33:35;;;;;;;16.33;5.80;;;;;;;;;;6190409;23;20059;-86
2022/05/03 07:36:03;;;;;;;17.95;5.65;;;;;;;;;;6189083;23;20437;-85
2022/05/03 07:38:29;;;;;;;17.02;6.30;;;;;;;;;;6163185;23;20434;-85
2022/05/03 07:40:56;;;;;;;14.05;5.75;;;;;;;;;;6189120;23;20017;-85
2022/05/03 07:43:22;;;;;;;16.80;5.47;;;;;;;;;;6189201;23;20378;-86
2022/05/03 07:45:48;;;;;;;17.15;5.28;;;;;;;;;;6188872;23;20012;-85
2022/05/03 07:48:14;;;;;;;13.32;4.78;;;;;;;;;;6188973;23;20446;-83
2022/05/03 07:50:40;;;;;;;13.63;4.82;;;;;;;;;;6163899;23;20025;-85
2022/05/03 07:53:06;;;;;;;17.50;6.10;;;;;;;;;;6189403;23;20135;-84
2022/05/03 07:55:32;;;;;;;16.08;5.55;;;;;;;;;;6214202;23;20219;-85
2022/05/03 07:57:58;;;;;;;18.85;5.68;;;;;;;;;;6188690;23;20087;-84
2022/05/03 08:00:26;;;;;;;13.43;5.40;;;;;;;;;;6188761;23;20059;-83
2022/05/03 08:02:52;;;;;;;18.52;5.35;;;;;;;;;;6188840;23;20024;-84
2022/05/03 08:05:18;;;;;;;21.92;6.03;;;;;;;;;;6215654;23;20442;-84
2022/05/03 08:07:44;;;;;;;17.15;5.55;;;;;;;;;;6188948;23;20016;-84
2022/05/03 08:10:10;;;;;;;20.25;5.90;;;;;;;;;;6188140;23;20024;-84
2022/05/03 08:12:36;;;;;;;24.27;6.15;;;;;;;;;;6186700;23;20039;-83
2022/05/03 08:15:06;;;;;;;14.70;5.47;;;;;;;;;;6161690;23;20138;-83
2022/05/03 08:17:32;;;;;;;21.50;5.65;;;;;;;;;;6188610;23;20410;-83
2022/05/03 08:19:58;;;;;;;14.98;4.93;;;;;;;;;;6188642;23;20072;-84
2022/05/03 08:22:27;;;;;;;20.25;5.85;;;;;;;;;;6188763;23;20047;-83
2022/05/03 08:24:53;;;;;;;19.30;4.70;;;;;;;;;;6188652;23;20021;-84
2022/05/03 08:27:19;;;;;;;16.83;4.78;;;;;;;;;;6202462;23;20017;-85
2022/05/03 08:29:46;;;;;;;26.63;5.93;;;;;;;;;;6132882;23;20319;-84
2022/05/03 08:32:12;;;;;;;22.48;5.20;;;;;;;;;;6158608;23;20017;-84
2022/05/03 08:34:38;;;;;;;18.38;4.63;;;;;;;;;;6158851;23;20343;-84
2022/05/03 08:42:33;;;;;;;16.70;4.65;;;;;;;;;;6158679;23;20435;-84
2022/05/03 08:45:02;;;;;;;19.17;4.38;;;;;;;;;;6158858;23;20017;-83
2022/05/03 08:47:28;;;;;;;18.73;4.68;;;;;;;;;;6158427;23;20358;-84
2022/05/03 08:50:08;;;;;;;21.48;4.75;;;;;;;;;;6185511;23;20013;-84
2022/05/03 08:52:39;;;;;;;16.17;4.60;;;;;;;;;;6158511;23;20346;-84
2022/05/03 08:55:06;;;;;;;19.52;5.00;;;;;;;;;;6159027;23;20009;-85
2022/05/03 08:57:32;;;;;;;17.35;4.40;;;;;;;;;;6158433;23;20009;-84
2022/05/03 08:59:58;;;;;;;17.13;4.22;;;;;;;;;;6155525;23;20259;-85
2022/05/03 09:02:24;;;;;;;19.33;4.45;;;;;;;;;;6133883;23;20055;-84
2022/05/03 09:04:50;;;;;;;14.43;4.20;;;;;;;;;;6155481;23;20147;-84
2022/05/03 09:07:19;;;;;;;16.52;4.40;;;;;;;;;;6133726;23;20059;-83
2022/05/03 09:09:45;;;;;;;15.20;4.30;;;;;;;;;;6160000;23;20021;-88
2022/05/03 09:12:30;;;;;;;14.50;4.03;;;;;;;;;;6135534;23;20009;-85
2022/05/03 09:15:00;;;;;;;20.90;4.88;;;;;;;;;;6157693;23;20289;-85
2022/05/03 09:17:38;;;;;;;16.75;4.05;;;;;;;;;;6158155;23;20013;-85
2022/05/03 09:25:56;;;;;;;;;;;;;;;;;;6185187;23;20439;-84
2022/05/03 09:28:23;;;;;;;16.92;4.03;;;;;;;;;;6183221;23;19916;-84
2022/05/03 09:30:50;;;;;;;14.77;3.35;;;;;;;;;;6188030;23;20088;-84
2022/05/03 09:33:17;;;;;;;13.93;3.50;;;;;;;;;;6188393;23;20040;-86
2022/05/03 09:35:43;;;;;;;15.32;3.80;;;;;;;;;;6188114;23;20438;-83
2022/05/03 09:38:09;;;;;;;12.25;3.70;;;;;;;;;;6188240;23;20088;-84
2022/05/03 09:40:36;;;;;;;13.85;3.22;;;;;;;;;;6188474;23;20091;-84
2022/05/03 09:43:02;;;;;;;14.30;3.70;;;;;;;;;;6187989;23;20038;-83
2022/05/03 09:45:28;;;;;;;15.88;3.40;;;;;;;;;;6188342;23;20044;-84
2022/05/03 09:47:56;;;;;;;12.23;3.35;;;;;;;;;;6187893;23;20044;-85
2022/05/03 09:50:26;;;;;;;13.50;3.10;;;;;;;;;;6188807;23;20071;-84
2022/05/03 09:52:53;;;;;;;12.43;2.95;;;;;;;;;;6187890;23;20438;-84
2022/05/03 09:55:28;;;;;;;12.82;3.25;;;;;;;;;;6188385;23;20449;-84
2022/05/03 09:57:56;;;;;;;11.18;3.33;;;;;;;;;;6187961;23;20013;-85
2022/05/03 10:00:22;;;;;;;8.98;3.05;;;;;;;;;;6186894;23;20442;-84
2022/05/03 10:02:48;;;;;;;13.55;3.20;;;;;;;;;;6187960;23;20066;-84
2022/05/03 10:05:15;;;;;;;12.35;3.20;;;;;;;;;;6185019;23;20307;-83
2022/05/03 10:07:43;;;;;;;12.52;3.33;;;;;;;;;;6162875;23;20016;-84
2022/05/03 10:10:09;;;;;;;16.58;3.75;;;;;;;;;;6186872;23;20019;-84
2022/05/03 10:12:39;;;;;;;18.20;2.95;;;;;;;;;;6187745;23;20048;-84
2022/05/03 10:15:05;;;;;;;14.20;3.53;;;;;;;;;;6188201;23;20052;-84
2022/05/03 10:20:36;;;;;;;14.80;3.10;;;;;;;;;;6215534;23;20017;-85
2022/05/03 10:23:03;;;;;;;11.48;3.00;;;;;;;;;;6187620;23;20437;-84
2022/05/03 10:25:29;;;;;;;13.00;2.85;;;;;;;;;;6187942;23;20019;-85
2022/05/03 10:27:56;;;;;;;15.52;3.10;;;;;;;;;;6187221;23;20021;-84
2022/05/03 10:30:24;;;;;;;13.50;3.20;;;;;;;;;;6187895;23;20032;-84
2022/05/03 10:33:08;;;;;;;14.00;3.20;;;;;;;;;;6187911;23;20013;-84
2022/05/03 10:35:36;;;;;;;13.23;3.03;;;;;;;;;;6164978;23;20044;-84
2022/05/03 10:38:03;;;;;;;13.68;3.15;;;;;;;;;;6189490;23;20008;-84
2022/05/03 10:40:31;;;;;;;13.55;3.45;;;;;;;;;;6215319;23;20017;-85
2022/05/03 10:43:07;;;;;;;9.82;3.60;;;;;;;;;;6187110;23;20047;-85
2022/05/03 10:45:47;;;;;;;11.35;3.15;;;;;;;;;;6189769;23;20020;-86
2022/05/03 10:48:30;;;;;;;12.27;3.45;;;;;;;;;;6189273;23;20016;-85
2022/05/03 10:50:57;;;;;;;10.63;3.05;;;;;;;;;;6189649;23;20020;-85
2022/05/03 10:53:24;;;;;;;10.80;3.22;;;;;;;;;;6164668;23;20073;-85
2022/05/03 10:56:09;;;;;;;11.32;2.83;;;;;;;;;;6189593;23;20015;-84
2022/05/03 10:58:36;;;;;;;8.35;2.58;;;;;;;;;;6187990;23;20044;-85
2022/05/03 11:01:05;;;;;;;9.15;2.90;;;;;;;;;;6216574;23;20091;-85
2022/05/03 11:03:32;;;;;;;8.02;2.83;;;;;;;;;;6187761;23;20048;-84
2022/05/03 11:06:17;;;;;;;8.75;2.58;;;;;;;;;;6189580;23;20023;-85
2022/05/03 11:11:47;;;;;;;12.55;2.72;;;;;;;;;;6216500;23;20023;-85
2022/05/03 11:14:16;;;;;;;10.48;2.72;;;;;;;;;;6188358;23;20084;-85
2022/05/03 11:17:01;;;;;;;8.55;2.42;;;;;;;;;;6189244;23;20063;-85
2022/05/03 11:19:27;;;;;;;9.40;2.42;;;;;;;;;;6163505;23;20016;-85
2022/05/03 11:21:53;;;;;;;8.32;2.10;;;;;;;;;;6189148;23;20062;-85
2022/05/03 11:24:26;;;;;;;10.25;2.30;;;;;;;;;;6163205;23;20099;-85
2022/05/03 11:26:53;;;;;;;8.13;2.08;;;;;;;;;;6188768;23;20016;-85
2022/05/03 11:29:19;;;;;;;9.88;2.50;;;;;;;;;;6214540;23;20017;-85
2022/05/03 11:31:47;;;;;;;10.48;2.30;;;;;;;;;;6189217;23;20446;-83
2022/05/03 11:34:13;;;;;;;12.60;2.67;;;;;;;;;;6186342;23;20401;-85
2022/05/03 11:36:41;;;;;;;9.32;2.03;;;;;;;;;;6189031;23;20018;-84
2022/05/03 11:39:08;;;;;;;6.10;1.73;;;;;;;;;;6163197;23;20040;-85
2022/05/03 11:41:34;;;;;;;6.55;2.03;;;;;;;;;;6189246;23;20302;-86
2022/05/03 11:44:00;;;;;;;10.10;2.33;;;;;;;;;;6162896;23;20108;-86
2022/05/03 11:46:26;;;;;;;10.10;2.83;;;;;;;;;;6215977;23;20009;-85
2022/05/03 11:48:53;;;;;;;8.63;2.13;;;;;;;;;;6187554;23;20075;-85
2022/05/03 11:57:04;;;;;;;13.43;2.40;;;;;;;;;;6188595;23;20016;-85
2022/05/03 11:59:31;;;;;;;9.27;2.60;;;;;;;;;;6162590;23;20016;-85
2022/05/03 12:02:17;;;;;;;8.32;1.73;;;;;;;;;;6188769;23;20470;-86
2022/05/03 12:05:22;;;;;;;9.88;2.20;;;;;;;;;;6163682;23;20102;-85
2022/05/03 12:07:49;;;;;;;10.95;2.80;;;;;;;;;;6040925;23;20512;-84
2022/05/03 12:10:27;;;;;;;10.32;2.30;;;;;;;;;;6041671;23;20019;-86
2022/05/03 12:13:08;;;;;;;7.68;2.42;;;;;;;;;;6124641;23;20031;-85
2022/05/03 12:15:35;;;;;;;8.80;2.38;;;;;;;;;;6189728;23;20013;-85
2022/05/03 12:18:03;;;;;;;10.23;2.08;;;;;;;;;;6188829;23;20062;-85
2022/05/03 12:20:48;;;;;;;9.55;2.58;;;;;;;;;;6188934;23;20017;-85
2022/05/03 12:23:15;;;;;;;8.15;2.20;;;;;;;;;;6188445;23;20016;-85
2022/05/03 12:25:42;;;;;;;8.85;1.77;;;;;;;;;;6163707;23;20057;-85
2022/05/03 12:28:08;;;;;;;7.05;1.88;;;;;;;;;;6166051;23;20017;-86
2022/05/03 12:30:35;;;;;;;8.45;2.10;;;;;;;;;;6134282;23;20027;-85
2022/05/03 12:33:04;;;;;;;8.70;2.15;;;;;;;;;;6133948;23;20017;-86
2022/05/03 12:35:35;;;;;;;6.68;2.00;;;;;;;;;;6158868;23;20273;-86
2022/05/03 12:38:14;;;;;;;8.85;1.92;;;;;;;;;;6133957;23;20013;-85
2022/05/03 12:40:48;;;;;;;9.30;2.25;;;;;;;;;;6159406;23;20025;-85
2022/05/03 12:43:17;;;;;;;6.60;2.17;;;;;;;;;;6158410;23;20027;-85
2022/05/03 12:45:55;;;;;;;10.23;2.20;;;;;;;;;;6159240;23;20028;-86
2022/05/03 12:48:21;;;;;;;7.22;1.98;;;;;;;;;;6158410;23;20323;-86
2022/05/03 12:50:47;;;;;;;10.05;2.20;;;;;;;;;;6158702;23;20020;-85
2022/05/03 12:53:14;;;;;;;7.47;2.00;;;;;;;;;;6158455;23;20276;-85
2022/05/03 12:55:40;;;;;;;9.20;2.30;;;;;;;;;;6158883;23;20443;-86
2022/05/03 13:00:51;;;;;;;7.78;2.08;;;;;;;;;;6185442;23;20021;-86
2022/05/03 13:03:17;;;;;;;9.75;2.38;;;;;;;;;;6158239;23;20016;-85
2022/05/03 13:05:43;;;;;;;8.68;1.83;;;;;;;;;;6158669;23;20024;-85
2022/05/03 13:08:09;;;;;;;8.95;2.00;;;;;;;;;;6157057;23;20447;-88
2022/05/03 13:10:35;;;;;;;7.38;2.10;;;;;;;;;;6158621;23;20048;-85
2022/05/03 13:13:02;;;;;;;9.07;2.25;;;;;;;;;;6158363;23;20024;-87
2022/05/03 13:15:28;;;;;;;8.07;2.25;;;;;;;;;;6134062;23;20349;-87
2022/05/03 13:17:54;;;;;;;7.90;2.25;;;;;;;;;;6158239;23;20016;-87
2022/05/03 13:20:21;;;;;;;7.78;2.25;;;;;;;;;;6158579;23;20470;-86
2022/05/03 13:22:47;;;;;;;13.18;2.30;;;;;;;;;;6158576;23;20339;-89
2022/05/03 13:25:13;;;;;;;10.63;1.90;;;;;;;;;;6158398;23;20013;-87
2022/05/03 13:27:39;;;;;;;10.10;2.10;;;;;;;;;;6174382;23;20020;-85
2022/05/03 13:30:05;;;;;;;5.55;1.67;;;;;;;;;;6163252;23;20335;-86
2022/05/03 13:32:32;;;;;;;9.95;2.03;;;;;;;;;;6188249;23;20091;-86
2022/05/03 13:34:58;;;;;;;9.85;2.20;;;;;;;;;;6163316;23;20045;-87
2022/05/03 13:40:44;;;;;;;9.38;2.28;;;;;;;;;;6214573;23;20347;-86
2022/05/03 13:43:04;;;;;;;10.35;2.63;;;;;;;;;;6182453;23;20016;-85
2022/05/03 13:45:31;;;;;;;12.07;2.55;;;;;;;;;;6188643;23;20027;-87
2022/05/03 13:47:57;;;;;;;9.38;2.13;;;;;;;;;;6188000;23;20338;-86
2022/05/03 13:50:23;;;;;;;6.05;2.10;;;;;;;;;;6187677;23;20013;-85
2022/05/03 13:52:49;;;;;;;9.18;2.22;;;;;;;;;;6163868;23;20040;-85
2022/05/03 13:55:15;;;;;;;10.52;2.55;;;;;;;;;;6187528;23;20378;-86
2022/05/03 13:57:42;;;;;;;8.45;2.33;;;;;;;;;;6187821;23;20008;-86
2022/05/03 14:00:10;;;;;;;8.43;2.05;;;;;;;;;;6188072;23;20021;-86
2022/05/03 14:02:37;;;;;;;10.15;2.50;;;;;;;;;;6188071;23;20032;-86
2022/05/03 14:05:03;;;;;;;10.32;2.17;;;;;;;;;;6163211;23;20020;-84
2022/05/03 14:07:30;;;;;;;8.27;2.42;;;;;;;;;;6188599;23;20024;-85
2022/05/03 14:09:56;;;;;;;14.05;2.53;;;;;;;;;;6216293;23;20472;-86
2022/05/03 14:12:22;;;;;;;11.80;2.38;;;;;;;;;;6189142;23;20012;-86
2022/05/03 14:14:48;;;;;;;13.13;2.22;;;;;;;;;;6187900;23;20023;-86
2022/05/03 14:17:14;;;;;;;7.90;2.10;;;;;;;;;;6165053;23;20350;-85
2022/05/03 14:19:41;;;;;;;10.25;1.98;;;;;;;;;;6189638;23;20028;-85
2022/05/03 14:22:07;;;;;;;11.80;2.47;;;;;;;;;;6189674;23;20020;-86
2022/05/03 14:24:33;;;;;;;7.68;2.15;;;;;;;;;;6189791;23;20020;-85
2022/05/03 14:26:59;;;;;;;10.63;2.17;;;;;;;;;;6164483;23;20020;-86
2022/05/03 14:29:25;;;;;;;11.65;2.00;;;;;;;;;;6189155;23;20021;-85
2022/05/03 14:31:51;;;;;;;10.65;2.28;;;;;;;;;;6189560;23;20017;-85
2022/05/03 14:34:17;;;;;;;12.50;2.50;;;;;;;;;;6164735;23;20017;-86
2022/05/03 14:36:43;;;;;;;14.25;2.35;;;;;;;;;;6189608;23;20173;-87
2022/05/03 14:39:10;;;;;;;10.32;2.38;;;;;;;;;;6189496;23;20044;-86
2022/05/03 14:41:38;;;;;;;13.45;2.63;;;;;;;;;;6164761;23;20442;-85
2022/05/03 14:44:05;;;;;;;9.15;2.25;;;;;;;;;;6164634;23;20012;-86
2022/05/03 14:46:31;;;;;;;10.02;2.40;;;;;;;;;;6164494;23;20078;-86
2022/05/03 14:48:57;;;;;;;7.75;2.22;;;;;;;;;;6186699;23;20509;-86
2022/05/03 14:51:23;;;;;;;9.68;2.25;;;;;;;;;;6189424;23;20052;-86
2022/05/03 14:53:49;;;;;;;7.13;2.50;;;;;;;;;;6189376;23;20009;-87
2022/05/03 15:04:30;;;;;;;10.90;2.60;;;;;;;;;;6189243;23;20020;-86
2022/05/03 15:06:56;;;;;;;12.57;2.15;;;;;;;;;;6213301;23;20088;-86
2022/05/03 15:09:22;;;;;;;8.00;2.08;;;;;;;;;;6189151;23;20066;-86
2022/05/03 15:11:48;;;;;;;8.63;2.35;;;;;;;;;;6186928;23;20035;-87
2022/05/03 15:14:14;;;;;;;9.52;2.38;;;;;;;;;;6189055;23;20338;-86
2022/05/03 15:16:40;;;;;;;8.43;2.33;;;;;;;;;;6163368;23;20017;-86
2022/05/03 15:19:06;;;;;;;12.75;2.53;;;;;;;;;;6163907;23;20009;-87
2022/05/03 15:21:32;;;;;;;9.38;2.28;;;;;;;;;;6188348;23;20021;-85
2022/05/03 15:26:42;;;;;;;9.23;2.40;;;;;;;;;;6183404;23;20025;-86
2022/05/03 15:29:14;;;;;;;10.05;2.47;;;;;;;;;;6159426;23;20027;-85
2022/05/03 15:31:40;;;;;;;9.98;2.20;;;;;;;;;;6185243;23;20040;-85
2022/05/03 15:34:06;;;;;;;8.05;2.20;;;;;;;;;;6134980;23;20009;-85